createdAt,value
2023-12-29T00:04:35.212Z,94.22
2023-12-29T00:09:42.621Z,94.12
2023-12-29T00:14:45.847Z,93.74
2023-12-29T00:19:48.692Z,93.75
2023-12-29T00:24:51.787Z,93.71
2023-12-29T00:29:54.491Z,93.62
2023-12-29T00:34:57.456Z,93.67
2023-12-29T00:40:00.491Z,93.74
2023-12-29T00:45:03.808Z,93.65
2023-12-29T00:50:07.081Z,93.71
2023-12-29T00:55:10.226Z,93.50
2023-12-29T01:00:14.342Z,93.65
2023-12-29T01:05:21.056Z,93.59
2023-12-29T01:10:24.243Z,93.68
2023-12-29T01:15:27.135Z,93.69
2023-12-29T01:20:29.986Z,93.96
2023-12-29T01:25:32.807Z,93.92
2023-12-29T01:30:35.642Z,94.40
2023-12-29T01:35:38.472Z,94.52
2023-12-29T01:40:47.905Z,94.72
2023-12-29T01:45:55.929Z,94.88
2023-12-29T01:51:01.186Z,95.11
2023-12-29T01:56:04.230Z,95.45
2023-12-29T02:01:08.734Z,95.55
2023-12-29T02:06:12.026Z,95.66
2023-12-29T02:11:15.128Z,95.72
2023-12-29T02:16:30.734Z,95.93
2023-12-29T02:21:33.454Z,96.21
2023-12-29T02:26:37.663Z,96.38
2023-12-29T02:31:45.689Z,96.55
2023-12-29T02:36:51.757Z,96.66
2023-12-29T02:41:54.728Z,96.59
2023-12-29T02:46:57.540Z,96.55
2023-12-29T02:52:00.291Z,96.65
2023-12-29T02:57:02.988Z,96.47
2023-12-29T03:02:05.772Z,96.45
2023-12-29T03:07:09.304Z,96.28
2023-12-29T03:12:12.174Z,96.18
2023-12-29T03:17:15.007Z,95.97
2023-12-29T03:22:17.757Z,95.90
2023-12-29T03:27:20.646Z,95.81
2023-12-29T03:32:23.445Z,95.72
2023-12-29T03:37:26.436Z,95.56
2023-12-29T03:42:29.166Z,95.47
2023-12-29T03:47:32.914Z,95.57
2023-12-29T03:52:35.748Z,95.64
2023-12-29T03:57:38.500Z,95.55
2023-12-29T04:02:42.068Z,95.59
2023-12-29T04:07:44.886Z,95.58
2023-12-29T04:12:47.823Z,95.69
2023-12-29T04:17:50.689Z,95.64
2023-12-29T04:22:53.967Z,95.54
2023-12-29T04:27:56.870Z,95.72
2023-12-29T04:32:59.907Z,95.94
2023-12-29T04:38:03.131Z,96.01
2023-12-29T04:43:06.399Z,96.08
2023-12-29T04:48:09.287Z,96.10
2023-12-29T04:53:12.507Z,96.18
2023-12-29T04:58:15.565Z,96.40
2023-12-29T05:03:18.387Z,96.72
2023-12-29T05:08:21.349Z,97.05
2023-12-29T05:13:24.042Z,97.12
2023-12-29T05:18:28.109Z,97.19
2023-12-29T05:23:30.975Z,97.16
2023-12-29T05:28:33.694Z,97.46
2023-12-29T05:33:37.094Z,97.75
2023-12-29T05:38:41.158Z,97.88
2023-12-29T05:43:43.844Z,98.09
2023-12-29T05:48:47.996Z,98.20
2023-12-29T05:53:50.822Z,98.03
2023-12-29T05:58:53.698Z,98.47
2023-12-29T06:03:56.556Z,98.57
2023-12-29T06:08:59.334Z,98.36
2023-12-29T06:14:02.172Z,98.33
2023-12-29T06:19:05.103Z,98.05
2023-12-29T06:24:07.991Z,97.95
2023-12-29T06:29:11.497Z,97.87
2023-12-29T06:34:14.342Z,97.80
2023-12-29T06:39:17.315Z,97.75
2023-12-29T06:44:20.359Z,97.68
2023-12-29T06:49:23.168Z,97.52
2023-12-29T06:54:25.933Z,97.53
2023-12-29T06:59:28.672Z,97.41
2023-12-29T07:04:31.437Z,97.19
2023-12-29T07:09:34.181Z,97.11
2023-12-29T07:14:37.020Z,97.21
2023-12-29T07:19:39.917Z,96.95
2023-12-29T07:24:42.776Z,96.86
2023-12-29T07:29:45.629Z,96.62
2023-12-29T07:34:49.816Z,96.64
2023-12-29T07:39:53.031Z,96.38
2023-12-29T07:44:57.607Z,96.33
2023-12-29T07:50:00.728Z,96.32
2023-12-29T07:55:03.814Z,96.39
2023-12-29T08:00:07.788Z,96.38
2023-12-29T08:05:10.551Z,96.42
2023-12-29T08:10:13.444Z,96.23
2023-12-29T08:15:16.229Z,96.10
2023-12-29T08:20:18.943Z,95.77
2023-12-29T08:25:21.717Z,95.74
2023-12-29T08:30:24.555Z,95.51
2023-12-29T08:35:27.423Z,95.28
2023-12-29T08:40:30.366Z,95.18
2023-12-29T08:45:33.379Z,94.95
2023-12-29T08:50:36.231Z,94.62
2023-12-29T08:55:39.315Z,94.28
2023-12-29T09:00:42.128Z,94.06
2023-12-29T09:05:44.944Z,93.71
2023-12-29T09:10:47.718Z,93.31
2023-12-29T09:15:50.523Z,93.32
2023-12-29T09:20:53.377Z,93.86
2023-12-29T09:25:56.274Z,94.46
2023-12-29T09:30:59.272Z,94.96
2023-12-29T09:36:02.112Z,95.05
2023-12-29T09:41:14.955Z,95.05
2023-12-29T09:46:19.702Z,94.87
2023-12-29T09:51:25.232Z,94.90
2023-12-29T09:56:28.376Z,94.73
2023-12-29T10:01:32.385Z,94.38
2023-12-29T10:06:37.959Z,94.22
2023-12-29T10:11:43.299Z,93.86
2023-12-29T10:16:56.032Z,94.01
2023-12-29T10:22:08.659Z,94.64
2023-12-29T10:27:12.024Z,95.26
2023-12-29T10:32:14.832Z,95.95
2023-12-29T10:37:24.040Z,96.33
2023-12-29T10:42:26.916Z,96.73
2023-12-29T10:47:29.670Z,97.15
2023-12-29T10:52:33.855Z,97.03
2023-12-29T10:57:37.727Z,96.64
2023-12-29T11:02:41.760Z,96.24
2023-12-29T11:07:44.643Z,95.50
2023-12-29T11:12:49.333Z,95.42
2023-12-29T11:17:54.624Z,94.92
2023-12-29T11:22:57.523Z,94.30
2023-12-29T11:28:01.682Z,93.21
2023-12-29T11:33:09.875Z,92.33
2023-12-29T11:38:33.863Z,89.43
2023-12-29T11:43:37.253Z,89.01
2023-12-29T11:48:59.195Z,88.84
2023-12-29T11:54:05.524Z,89.02
2023-12-29T11:59:16.005Z,88.73
2023-12-29T12:04:46.952Z,87.18
2023-12-29T12:09:56.440Z,83.98
2023-12-29T12:14:59.391Z,83.78
2023-12-29T12:20:12.568Z,84.53
2023-12-29T12:25:16.273Z,84.52
2023-12-29T12:30:20.137Z,84.70
2023-12-29T12:35:24.043Z,85.43
2023-12-29T12:40:29.960Z,85.58
2023-12-29T12:45:44.320Z,86.08
2023-12-29T12:50:48.972Z,86.54
2023-12-29T12:55:53.689Z,86.69
2023-12-29T13:00:58.968Z,86.88
2023-12-29T13:06:02.714Z,87.13
2023-12-29T13:11:06.810Z,87.11
2023-12-29T13:16:10.276Z,87.38
2023-12-29T13:21:13.928Z,87.56
2023-12-29T13:26:19.839Z,87.58
2023-12-29T13:31:22.980Z,87.57
2023-12-29T13:36:44.911Z,87.82
2023-12-29T13:41:48.484Z,87.87
2023-12-29T13:46:52.575Z,87.87
2023-12-29T13:51:55.608Z,87.56
2023-12-29T13:56:58.323Z,87.56
2023-12-29T14:02:20.671Z,87.34
2023-12-29T14:07:26.370Z,87.10
2023-12-29T14:12:29.165Z,87.11
2023-12-29T14:17:32.191Z,87.05
2023-12-29T14:22:35.113Z,86.95
2023-12-29T14:27:40.486Z,86.91
2023-12-29T14:32:43.403Z,87.05
2023-12-29T14:37:46.366Z,86.91
2023-12-29T14:42:49.209Z,86.99
2023-12-29T14:47:52.046Z,87.01
2023-12-29T14:52:54.936Z,87.04
2023-12-29T14:57:57.932Z,87.19
2023-12-29T15:03:00.811Z,87.18
2023-12-29T15:08:05.587Z,87.38
2023-12-29T15:13:08.761Z,87.64
2023-12-29T15:18:11.553Z,88.00
2023-12-29T15:23:14.381Z,87.98
2023-12-29T15:28:20.651Z,88.00
2023-12-29T15:33:23.785Z,87.84
2023-12-29T15:38:26.703Z,87.96
2023-12-29T15:43:30.807Z,88.15
2023-12-29T15:48:33.679Z,88.07
2023-12-29T15:53:36.856Z,88.24
2023-12-29T15:58:39.631Z,88.47
2023-12-29T16:03:42.583Z,88.64
2023-12-29T16:08:45.599Z,88.51
2023-12-29T16:13:48.644Z,88.48
2023-12-29T16:18:51.565Z,88.42
2023-12-29T16:23:54.526Z,87.62
2023-12-29T16:28:57.276Z,86.82
2023-12-29T16:34:00.943Z,86.44
2023-12-29T16:39:04.826Z,86.33
2023-12-29T16:44:08.878Z,86.29
2023-12-29T16:49:11.706Z,86.85
2023-12-29T16:54:14.721Z,87.20
2023-12-29T16:59:18.146Z,88.01
2023-12-29T17:04:21.174Z,88.61
2023-12-29T17:09:24.043Z,89.96
2023-12-29T17:14:26.768Z,91.58
2023-12-29T17:19:29.655Z,92.96
2023-12-29T17:24:35.055Z,93.91
2023-12-29T17:29:39.830Z,94.52
2023-12-29T17:34:43.172Z,95.41
2023-12-29T17:39:46.529Z,95.88
2023-12-29T17:44:49.774Z,96.20
2023-12-29T17:49:52.589Z,96.08
2023-12-29T17:54:57.172Z,96.12
2023-12-29T18:00:00.658Z,95.64
2023-12-29T18:05:04.676Z,95.21
2023-12-29T18:10:10.075Z,94.77
2023-12-29T18:15:15.567Z,93.44
2023-12-29T18:20:18.679Z,92.52
2023-12-29T18:25:21.557Z,91.22
2023-12-29T18:30:24.439Z,91.15
2023-12-29T18:35:27.274Z,90.69
2023-12-29T18:40:32.142Z,90.79
2023-12-29T18:45:35.128Z,90.37
2023-12-29T18:50:37.975Z,90.52
2023-12-29T18:55:45.607Z,91.15
2023-12-29T19:00:52.172Z,92.14
2023-12-29T19:05:55.134Z,92.76
2023-12-29T19:10:57.840Z,93.76
2023-12-29T19:16:02.998Z,94.73
2023-12-29T19:21:06.301Z,95.45
2023-12-29T19:26:18.458Z,96.03
2023-12-29T19:31:21.524Z,96.61
2023-12-29T19:36:24.460Z,97.11
2023-12-29T19:41:35.434Z,97.51
2023-12-29T19:46:43.075Z,97.94
2023-12-29T19:51:45.971Z,98.27
2023-12-29T19:56:52.659Z,99.19
2023-12-29T20:01:55.653Z,99.96
2023-12-29T20:06:58.452Z,100.00
2023-12-29T20:12:01.182Z,100.00
2023-12-29T20:17:04.138Z,100.00
2023-12-29T20:22:06.906Z,100.00
2023-12-29T20:27:09.781Z,100.00
2023-12-29T20:32:12.939Z,100.00
2023-12-29T20:37:15.771Z,100.00
2023-12-29T20:42:18.616Z,100.00
2023-12-29T20:47:21.743Z,100.00
2023-12-29T20:52:24.646Z,100.00
2023-12-29T20:57:27.562Z,100.00
2023-12-29T21:02:30.277Z,100.00
2023-12-29T21:07:33.103Z,100.00
2023-12-29T21:12:35.933Z,100.00
2023-12-29T21:17:38.699Z,100.00
2023-12-29T21:22:44.095Z,100.00
2023-12-29T21:27:47.640Z,100.00
2023-12-29T21:32:50.507Z,100.00
2023-12-29T21:37:53.212Z,100.00
2023-12-29T21:42:56.030Z,100.00
2023-12-29T21:47:58.917Z,100.00
2023-12-29T21:53:02.040Z,100.00
2023-12-29T21:58:05.468Z,100.00
2023-12-29T22:03:08.231Z,100.00
2023-12-29T22:08:11.372Z,100.00
2023-12-29T22:13:14.091Z,100.00
2023-12-29T22:18:16.903Z,100.00
2023-12-29T22:23:19.740Z,100.00
2023-12-29T22:28:23.126Z,100.00
2023-12-29T22:33:25.970Z,100.00
2023-12-29T22:38:28.717Z,100.00
2023-12-29T22:43:31.459Z,100.00
2023-12-29T22:48:34.310Z,100.00
2023-12-29T22:53:37.557Z,100.00
2023-12-29T22:58:40.293Z,100.00
2023-12-29T23:03:43.107Z,100.00
2023-12-29T23:08:46.028Z,100.00
2023-12-29T23:13:48.870Z,100.00
2023-12-29T23:18:53.227Z,100.00
2023-12-29T23:23:56.046Z,100.00
2023-12-29T23:28:58.934Z,100.00
2023-12-29T23:34:01.829Z,100.00
2023-12-29T23:39:04.654Z,100.00
2023-12-29T23:44:08.573Z,100.00
2023-12-29T23:49:11.442Z,100.00
2023-12-29T23:54:14.873Z,100.00
2023-12-29T23:59:18.296Z,100.00
